x

Pt Arena - 19nm North Of Point Arena, Ca (46014) Wave Buoy

5:50am - Tue 2nd Sep 2014 All times are PDT. -7 hours from GMT.

  • Sig Wave height 6.2ft
  • Peak Period 8s
  • Average Period 6s
  • Wind
    9mph, 11mph gusts
  • Sea Temp 57°f
  • Air Temp 57°f
  • Sea Pressure 1009.3mb
  • Pt Arena - 19nm North Of Point Arena, Ca
  • Pt Arena - 19nm North Of Point Arena, Ca

More Historic Weather Station data

Upgrade to MSW Pro to gain access to the past 30 days of data for over 8000 Wavebouys and Weather Stations around the globe.

Join Pro

Comparision Forecast

View Surf forecast
   
Tue 09/02 5:50am 6ft 8s 6s 9 11 mph 1009.3mb 57f 57f
4:50am 6ft 7s 6s 11 13 mph 1009.3mb 57f 57f
3:50am 6.5ft 7s 6s 9 11 mph 1009.6mb 57f 57f
2:50am 6.5ft 7s 6s 11 16 mph 1009.7mb 57f 58f
1:50am 6.5ft 7s 6s 11 16 mph 1009.6mb 57f 58f
12:50am 7ft 7s 6s 13 16 mph 1009.7mb 56f 58f
Mon 09/01 11:50pm 7ft 7s 6s 16 20 mph 1009.7mb 56f 58f
10:50pm 7.5ft 7s 6s 16 18 mph 1009.8mb 56f 58f
9:50pm 6.5ft 8s 6s 18 20 mph 1009.5mb 56f 58f
8:50pm  -   -   -  13
mph
- - 58f
7:50pm 6.5ft 7s 6s 13 16 mph 1009.4mb 57f 58f
6:50pm 6ft 7s 6s 13 16 mph 1009.5mb 57f 58f
5:50pm 5.5ft 7s 6s 11
mph
1010mb 57f 58f
4:50pm 5.5ft 7s 6s 11 13 mph 1010.4mb 57f 58f
3:50pm 5ft 7s 6s 13
mph
1010.9mb 57f 58f
2:50pm 5.5ft 6s 6s 13 16 mph 1011.3mb 57f 58f
1:50pm 6ft 7s 6s 13 16 mph 1011.8mb 58f 58f
12:50pm 6ft 7s 6s 16 20 mph 1011.9mb 57f 58f
11:50am 7ft 9s 6s 16 18 mph 1012.3mb 57f 58f
10:50am 7ft 7s 6s 16 18 mph 1012.4mb 56f 57f
9:50am 7ft 7s 6s 16 20 mph 1012.3mb 56f 57f
8:50am 7ft 7s 6s 13 16 mph 1012.3mb 57f 58f
7:50am 7ft 10s 6s 18 22 mph 1012.1mb 57f 58f
6:50am 7.5ft 8s 6s 20 25 mph 1011.6mb 56f 58f
5:50am  -   -   -  22 27 mph 1011.4mb 57f 58f
4:50am 7.5ft 7s 6s 25 29 mph 1011.6mb 57f 58f
2:50am 8ft 7s 6s 27 31 mph 1011.7mb 58f 59f
1:50am  -   -   -  27
mph
- - 59f
12:50am 9ft 7s 6s 27 34 mph 1012mb 58f 59f
Sun 08/31 11:50pm  -   -   -  29 34 mph 1012.1mb 58f 60f
10:50pm 8ft 7s 6s 27 31 mph 1012.3mb 59f 60f
9:50pm  -   -   -  27 31 mph 1012.1mb 60f 61f
8:50pm 9ft 7s 6s 29 34 mph 1011.7mb 60f 61f
7:50pm 9ft 7s 6s 31 36 mph 1011.3mb 61f 62f
6:50pm 9ft 8s 6s 18 22 mph 1012.4mb 61f 62f
5:50pm 9ft 7s 6s 18 22 mph 1012.8mb 61f 62f
4:50pm 7ft 6s 6s 18 22 mph 1013.1mb 61f 61f
3:50pm 6.5ft 7s 6s 18 20 mph 1013.6mb 60f 61f
2:50pm 6ft 11s 6s 18 22 mph 1014.3mb 60f 60f
1:50pm 5.5ft 11s 6s 18 22 mph 1014.9mb 60f 59f
12:50pm 5.5ft 6s 5s 16 18 mph 1015.2mb 60f 59f
11:50am 5.5ft 12s 6s 18 22 mph 1015.2mb 60f 59f
10:50am 6ft 6s 6s 18 22 mph 1015.1mb 60f 59f
9:50am  -   -   -  20 25 mph 1015mb 60f 59f
8:50am 5.5ft 6s 5s 22 27 mph 1014.4mb 60f 59f
7:50am  -   -   -  22 27 mph 1014.2mb 60f 59f
6:50am 5.5ft 6s 5s 22 27 mph 1013.8mb 60f 59f
5:50am 5ft 6s 5s 20 27 mph 1013.5mb 60f 59f
4:50am  -   -   -  20 25 mph 1013.4mb 60f 60f
3:50am  -   -   -  20 27 mph 1013.4mb 60f 60f
2:50am 5ft 6s 5s 20 25 mph 1013.2mb 60f 60f
1:50am  -   -   -  20 27 mph 1013.3mb 60f 60f
12:50am 5ft 6s 5s 22 29 mph 1013.3mb 60f 60f
Sat 08/30 11:50pm  -   -   -  22 29 mph 1013.5mb 60f 59f
10:50pm  -   -   -  22
mph
- - -
9:50pm 5.5ft 6s 5s 13 18 mph 1014mb 60f 62f
8:50pm 6ft 6s 5s 11 13 mph 1014mb 60f 62f
7:50pm 7ft 6s 6s 13 18 mph 1013.7mb 60f 62f
5:50pm 5ft 6s 5s 13 18 mph 1014.1mb 60f 61f
4:50pm 5ft 5s 5s 13 18 mph 1014.3mb 60f 61f
3:50pm 4.5ft 9s 5s 11 13 mph 1014.5mb 60f 61f
2:50pm 4.5ft 9s 5s 18 20 mph 1014.5mb 60f 61f
1:50pm 4.5ft 10s 5s 18 20 mph 1014.7mb 60f 61f
12:50pm 4.5ft 10s 5s 18 20 mph 1014.9mb 60f 60f
11:50am 4.5ft 9s 5s 18 22 mph 1015mb 60f 60f
10:50am 5ft 10s 6s 18 20 mph 1015mb 60f 60f
9:50am 5ft 10s 6s 18 22 mph 1014.6mb 60f 60f
8:50am 5.5ft 10s 6s 20 25 mph 1014.3mb 60f 60f
7:50am 5.5ft 11s 6s 20 27 mph 1014.1mb 60f 60f
6:50am 5.5ft 11s 6s 22 29 mph 1013.7mb 60f 60f
5:50am 5.5ft 10s 6s 20 25 mph 1013.7mb 60f 60f
4:50am 5.5ft 10s 6s 20 22 mph 1013.7mb 60f 59f
3:50am 5.5ft 11s 6s 20 25 mph 1013.5mb 60f 59f
2:50am 5ft 11s 5s 20 25 mph 1013.7mb 60f 59f
1:50am  -   -   -  20 25 mph 1014.1mb 60f 59f
12:50am 5.5ft 11s 6s 20 22 mph 1014.1mb 60f 59f
Fri 08/29 11:50pm  -   -   -  20 22 mph 1014.4mb 60f 60f
10:50pm  -   -   -  16 20 mph 1014.5mb 60f 60f
9:50pm 7ft 7s 6s 11 16 mph 1014.3mb 61f 60f
8:50pm 7ft 7s 7s 18 20 mph 1013.4mb 61f 60f
7:50pm 7ft 11s 6s 13 18 mph 1013.8mb 61f 61f
6:50pm 6.5ft 11s 6s 13 16 mph 1013.8mb 61f 61f
5:50pm 6ft 11s 6s 16 20 mph 1014mb 61f 60f
4:50pm 5.5ft 11s 6s 18 20 mph 1014.4mb 61f 59f
3:50pm 5.5ft 11s 6s 18 22 mph 1014.3mb 61f 60f
2:50pm 5ft 12s 6s 16 20 mph 1014.1mb 61f 60f
1:50pm 5.5ft 12s 6s 13 16 mph 1014.2mb 61f 59f